createdAt,value
2018-02-27T00:00:09.425Z,970.28
2018-02-27T00:01:09.408Z,970.26
2018-02-27T00:02:09.384Z,970.27
2018-02-27T00:03:09.355Z,970.29
2018-02-27T00:04:09.332Z,970.30
2018-02-27T00:05:09.312Z,970.23
2018-02-27T00:06:09.283Z,970.24
2018-02-27T00:07:09.262Z,970.20
2018-02-27T00:08:09.237Z,970.22
2018-02-27T00:09:09.218Z,970.28
2018-02-27T00:10:09.189Z,970.14
2018-02-27T00:11:09.166Z,970.17
2018-02-27T00:12:09.151Z,970.18
2018-02-27T00:13:09.117Z,970.18
2018-02-27T00:14:09.096Z,970.15
2018-02-27T00:15:09.077Z,970.16
2018-02-27T00:16:09.048Z,970.13
2018-02-27T00:17:09.024Z,970.12
2018-02-27T00:18:08.999Z,970.12
2018-02-27T00:19:08.983Z,970.13
2018-02-27T00:20:08.960Z,970.13
2018-02-27T00:21:08.943Z,970.06
2018-02-27T00:22:08.907Z,970.05
2018-02-27T00:23:08.888Z,970.05
2018-02-27T00:24:08.862Z,970.11
2018-02-27T00:25:08.834Z,970.06
2018-02-27T00:26:08.812Z,970.07
2018-02-27T00:27:08.795Z,970.06
2018-02-27T00:28:08.768Z,970.05
2018-02-27T00:29:08.754Z,970.05
2018-02-27T00:30:08.718Z,970.07
2018-02-27T00:31:08.696Z,970.11
2018-02-27T00:32:08.673Z,970.03
2018-02-27T00:33:08.651Z,970.03
2018-02-27T00:34:08.629Z,970.06
2018-02-27T00:35:08.602Z,970.03
2018-02-27T00:36:08.585Z,970.00
2018-02-27T00:37:08.555Z,970.00
2018-02-27T00:38:08.532Z,970.00
2018-02-27T00:39:08.514Z,969.99
2018-02-27T00:40:08.484Z,969.99
2018-02-27T00:41:08.460Z,970.00
2018-02-27T00:42:08.441Z,970.06
2018-02-27T00:43:08.411Z,970.06
2018-02-27T00:44:08.391Z,970.06
2018-02-27T00:45:08.366Z,970.05
2018-02-27T00:46:08.342Z,970.04
2018-02-27T00:47:08.336Z,970.03
2018-02-27T00:48:08.304Z,970.00
2018-02-27T00:49:08.279Z,970.03
2018-02-27T00:50:08.250Z,970.00
2018-02-27T00:51:08.232Z,970.05
2018-02-27T00:52:08.204Z,969.98
2018-02-27T00:53:08.180Z,969.97
2018-02-27T00:54:08.162Z,969.95
2018-02-27T00:55:08.134Z,969.96
2018-02-27T00:56:08.111Z,969.94
2018-02-27T00:57:08.088Z,969.96
2018-02-27T00:58:08.064Z,969.95
2018-02-27T00:59:08.042Z,969.96
2018-02-27T01:00:08.020Z,969.93
2018-02-27T01:01:07.993Z,969.95
2018-02-27T01:02:08.011Z,969.91
2018-02-27T01:03:07.947Z,969.90
2018-02-27T01:04:07.924Z,969.89
2018-02-27T01:05:07.901Z,969.84
2018-02-27T01:06:07.884Z,969.85
2018-02-27T01:07:07.856Z,969.83
2018-02-27T01:08:07.840Z,969.84
2018-02-27T01:09:07.813Z,969.78
2018-02-27T01:10:07.785Z,969.78
2018-02-27T01:11:07.761Z,969.81
2018-02-27T01:12:07.738Z,969.77
2018-02-27T01:13:07.715Z,969.78
2018-02-27T01:14:07.693Z,969.71
2018-02-27T01:15:07.669Z,969.75
2018-02-27T01:16:07.651Z,969.72
2018-02-27T01:17:07.624Z,969.73
2018-02-27T01:18:07.604Z,969.72
2018-02-27T01:19:07.576Z,969.70
2018-02-27T01:20:07.552Z,969.76
2018-02-27T01:21:07.534Z,969.74
2018-02-27T01:22:07.505Z,969.78
2018-02-27T01:23:07.482Z,969.75
2018-02-27T01:24:07.465Z,969.72
2018-02-27T01:25:07.442Z,969.70
2018-02-27T01:26:07.420Z,969.69
2018-02-27T01:27:07.395Z,969.72
2018-02-27T01:28:07.367Z,969.78
2018-02-27T01:29:07.345Z,969.62
2018-02-27T01:30:07.320Z,969.65
2018-02-27T01:31:07.299Z,969.72
2018-02-27T01:32:07.275Z,969.64
2018-02-27T01:33:07.252Z,969.63
2018-02-27T01:34:07.234Z,969.61
2018-02-27T01:35:07.204Z,969.62
2018-02-27T01:36:07.188Z,969.68
2018-02-27T01:37:07.157Z,969.67
2018-02-27T01:38:07.139Z,969.66
2018-02-27T01:39:07.111Z,969.64
2018-02-27T01:40:07.090Z,969.66
2018-02-27T01:41:07.070Z,969.63
2018-02-27T01:42:07.048Z,969.63
2018-02-27T01:43:07.019Z,969.59
2018-02-27T01:44:06.997Z,969.56
2018-02-27T01:45:06.971Z,969.55
2018-02-27T01:46:06.949Z,969.61
2018-02-27T01:47:06.926Z,969.60
2018-02-27T01:48:06.900Z,969.51
2018-02-27T01:49:06.878Z,969.51
2018-02-27T01:50:06.865Z,969.49
2018-02-27T01:51:06.835Z,969.54
2018-02-27T01:52:06.807Z,969.49
2018-02-27T01:53:06.788Z,969.54
2018-02-27T01:54:06.762Z,969.58
2018-02-27T01:55:06.737Z,969.50
2018-02-27T01:56:06.717Z,969.45
2018-02-27T01:57:06.688Z,969.46
2018-02-27T01:58:06.667Z,969.45
2018-02-27T01:59:06.647Z,969.35
2018-02-27T02:00:06.617Z,969.35
2018-02-27T02:01:06.600Z,969.37
2018-02-27T02:02:06.574Z,969.35
2018-02-27T02:03:06.546Z,969.38
2018-02-27T02:04:06.526Z,969.34
2018-02-27T02:05:06.506Z,969.28
2018-02-27T02:06:06.482Z,969.36
2018-02-27T02:07:06.452Z,969.33
2018-02-27T02:08:06.434Z,969.36
2018-02-27T02:09:06.407Z,969.34
2018-02-27T02:10:06.380Z,969.27
2018-02-27T02:11:06.356Z,969.26
2018-02-27T02:12:06.334Z,969.29
2018-02-27T02:13:06.315Z,969.33
2018-02-27T02:14:06.291Z,969.25
2018-02-27T02:15:06.268Z,969.28
2018-02-27T02:16:06.243Z,969.31
2018-02-27T02:17:06.212Z,969.28
2018-02-27T02:18:06.194Z,969.27
2018-02-27T02:19:06.164Z,969.24
2018-02-27T02:20:06.141Z,969.21
2018-02-27T02:21:06.121Z,969.17
2018-02-27T02:22:06.102Z,969.27
2018-02-27T02:23:06.070Z,969.20
2018-02-27T02:24:06.043Z,969.25
2018-02-27T02:25:06.018Z,969.21
2018-02-27T02:26:05.998Z,969.27
2018-02-27T02:27:05.976Z,969.17
2018-02-27T02:28:05.950Z,969.28
2018-02-27T02:29:05.919Z,969.17
2018-02-27T02:30:05.902Z,969.15
2018-02-27T02:31:05.871Z,969.26
2018-02-27T02:32:05.849Z,969.22
2018-02-27T02:33:05.823Z,969.13
2018-02-27T02:34:05.801Z,969.10
2018-02-27T02:35:05.786Z,969.26
2018-02-27T02:36:05.761Z,969.13
2018-02-27T02:37:05.727Z,969.08
2018-02-27T02:38:05.734Z,969.08
2018-02-27T02:39:05.684Z,969.08
2018-02-27T02:40:05.654Z,969.13
2018-02-27T02:41:05.632Z,969.15
2018-02-27T02:42:05.604Z,969.10
2018-02-27T02:43:05.633Z,969.11
2018-02-27T02:44:05.561Z,969.07
2018-02-27T02:45:05.530Z,969.05
2018-02-27T02:46:05.507Z,969.05
2018-02-27T02:47:05.483Z,969.04
2018-02-27T02:48:05.463Z,969.08
2018-02-27T02:49:05.440Z,969.10
2018-02-27T02:50:05.408Z,969.09
2018-02-27T02:51:05.387Z,969.06
2018-02-27T02:52:05.364Z,969.07
2018-02-27T02:53:05.340Z,969.04
2018-02-27T02:54:05.310Z,969.01
2018-02-27T02:55:05.293Z,968.98
2018-02-27T02:56:05.262Z,969.02
2018-02-27T02:57:05.239Z,968.95
2018-02-27T02:58:05.218Z,968.99
2018-02-27T02:59:05.194Z,969.04
2018-02-27T03:00:05.165Z,968.96
2018-02-27T03:01:05.140Z,969.03
2018-02-27T03:02:05.117Z,968.99
2018-02-27T03:03:05.090Z,969.01
2018-02-27T03:04:05.073Z,968.96
2018-02-27T03:05:05.042Z,968.97
2018-02-27T03:06:05.017Z,968.95
2018-02-27T03:07:04.998Z,968.90
2018-02-27T03:08:04.969Z,968.93
2018-02-27T03:09:04.951Z,968.99
2018-02-27T03:10:04.930Z,968.94
2018-02-27T03:11:04.902Z,968.89
2018-02-27T03:12:04.875Z,968.98
2018-02-27T03:13:04.845Z,968.96
2018-02-27T03:14:04.823Z,968.93
2018-02-27T03:15:04.811Z,968.94
2018-02-27T03:16:04.778Z,968.97
2018-02-27T03:17:04.750Z,968.97
2018-02-27T03:18:04.727Z,968.96
2018-02-27T03:19:04.702Z,968.95
2018-02-27T03:20:04.684Z,968.97
2018-02-27T03:21:04.653Z,968.94
2018-02-27T03:22:04.636Z,968.96
2018-02-27T03:23:04.609Z,968.93
2018-02-27T03:24:04.583Z,968.92
2018-02-27T03:25:04.562Z,968.86
2018-02-27T03:26:04.535Z,968.89
2018-02-27T03:27:04.510Z,968.92
2018-02-27T03:28:04.492Z,968.92
2018-02-27T03:29:04.468Z,968.89
2018-02-27T03:30:04.446Z,968.90
2018-02-27T03:31:04.418Z,968.87
2018-02-27T03:32:04.397Z,968.87
2018-02-27T03:33:04.365Z,968.86
2018-02-27T03:34:04.344Z,968.86
2018-02-27T03:35:04.325Z,968.88
2018-02-27T03:36:04.295Z,968.86
2018-02-27T03:37:04.270Z,968.84
2018-02-27T03:38:04.246Z,968.80
2018-02-27T03:39:04.229Z,968.83
2018-02-27T03:40:04.202Z,968.80
2018-02-27T03:41:04.174Z,968.78
2018-02-27T03:42:04.150Z,968.79
2018-02-27T03:43:04.130Z,968.80
2018-02-27T03:44:04.109Z,968.81
2018-02-27T03:45:04.080Z,968.75
2018-02-27T03:46:04.055Z,968.77
2018-02-27T03:47:04.032Z,968.81
2018-02-27T03:48:04.013Z,968.84
2018-02-27T03:49:03.985Z,968.85
2018-02-27T03:50:03.961Z,968.82
2018-02-27T03:51:03.936Z,968.85
2018-02-27T03:52:03.921Z,968.85
2018-02-27T03:53:03.891Z,968.77
2018-02-27T03:54:03.867Z,968.87
2018-02-27T03:55:03.844Z,968.78
2018-02-27T03:56:03.821Z,968.78
2018-02-27T03:57:03.795Z,968.84
2018-02-27T03:58:03.776Z,968.83
2018-02-27T03:59:03.750Z,968.75
2018-02-27T04:00:03.722Z,968.78
2018-02-27T04:01:03.700Z,968.80
2018-02-27T04:02:03.683Z,968.83
2018-02-27T04:03:03.658Z,968.73
2018-02-27T04:04:03.630Z,968.84
2018-02-27T04:05:03.611Z,968.81
2018-02-27T04:06:03.588Z,968.75
2018-02-27T04:07:03.558Z,968.76
2018-02-27T04:08:03.536Z,968.76
2018-02-27T04:09:03.519Z,968.78
2018-02-27T04:10:03.490Z,968.74
2018-02-27T04:11:03.465Z,968.78
2018-02-27T04:12:03.440Z,968.76
2018-02-27T04:13:03.422Z,968.74
2018-02-27T04:14:03.393Z,968.73
2018-02-27T04:15:03.374Z,968.72
2018-02-27T04:16:03.347Z,968.73
2018-02-27T04:17:03.323Z,968.69
2018-02-27T04:18:03.298Z,968.74
2018-02-27T04:19:03.273Z,968.75
2018-02-27T04:20:03.253Z,968.70
2018-02-27T04:21:03.226Z,968.67
2018-02-27T04:22:03.208Z,968.68
2018-02-27T04:23:03.179Z,968.72
2018-02-27T04:24:03.158Z,968.72
2018-02-27T04:25:03.143Z,968.70
2018-02-27T04:26:03.114Z,968.66
2018-02-27T04:27:03.099Z,968.69
2018-02-27T04:28:03.065Z,968.75
2018-02-27T04:29:03.039Z,968.66
2018-02-27T04:30:03.014Z,968.68
2018-02-27T04:31:02.994Z,968.66
2018-02-27T04:32:02.969Z,968.73
2018-02-27T04:33:02.945Z,968.66
2018-02-27T04:34:02.925Z,968.65
2018-02-27T04:35:02.910Z,968.63
2018-02-27T04:36:02.875Z,968.65
2018-02-27T04:37:02.851Z,968.65
2018-02-27T04:38:02.827Z,968.73
2018-02-27T04:39:02.808Z,968.64
2018-02-27T04:40:02.778Z,968.66
2018-02-27T04:41:02.760Z,968.72
2018-02-27T04:42:02.735Z,968.63
2018-02-27T04:43:02.715Z,968.67
2018-02-27T04:44:02.687Z,968.62
2018-02-27T04:45:02.660Z,968.66
2018-02-27T04:46:02.637Z,968.65
2018-02-27T04:47:02.615Z,968.65
2018-02-27T04:48:02.597Z,968.72
2018-02-27T04:49:02.567Z,968.73
2018-02-27T04:50:02.542Z,968.66
2018-02-27T04:51:02.524Z,968.69
2018-02-27T04:52:02.505Z,968.72
2018-02-27T04:53:02.474Z,968.65
2018-02-27T04:54:02.450Z,968.70
2018-02-27T04:55:02.425Z,968.61
2018-02-27T04:56:02.410Z,968.61
2018-02-27T04:57:02.378Z,968.57
2018-02-27T04:58:02.353Z,968.62
2018-02-27T04:59:02.331Z,968.55
2018-02-27T05:00:02.314Z,968.56
2018-02-27T05:01:02.284Z,968.55
2018-02-27T05:02:02.259Z,968.52
2018-02-27T05:03:02.243Z,968.53
2018-02-27T05:04:02.219Z,968.53
2018-02-27T05:05:02.196Z,968.52
2018-02-27T05:06:02.167Z,968.51
2018-02-27T05:07:02.141Z,968.52
2018-02-27T05:08:02.121Z,968.57
2018-02-27T05:09:02.099Z,968.54
2018-02-27T05:10:02.072Z,968.54
2018-02-27T05:11:02.049Z,968.50
2018-02-27T05:12:02.026Z,968.53
2018-02-27T05:13:02.001Z,968.51
2018-02-27T05:14:01.979Z,968.50
2018-02-27T05:15:01.955Z,968.47
2018-02-27T05:16:01.931Z,968.49
2018-02-27T05:17:01.907Z,968.48
2018-02-27T05:18:01.884Z,968.53
2018-02-27T05:19:01.868Z,968.48
2018-02-27T05:20:01.837Z,968.49
2018-02-27T05:21:01.814Z,968.45
2018-02-27T05:22:01.792Z,968.46
2018-02-27T05:23:01.766Z,968.60
2018-02-27T05:24:01.750Z,968.54
2018-02-27T05:25:01.727Z,968.48
2018-02-27T05:26:01.704Z,968.48
2018-02-27T05:27:01.676Z,968.46
2018-02-27T05:28:01.655Z,968.45
2018-02-27T05:29:01.627Z,968.48
2018-02-27T05:30:01.604Z,968.51
2018-02-27T05:31:01.585Z,968.51
2018-02-27T05:32:01.557Z,968.45
2018-02-27T05:33:01.533Z,968.43
2018-02-27T05:34:01.509Z,968.46
2018-02-27T05:35:01.488Z,968.47
2018-02-27T05:36:01.478Z,968.36
2018-02-27T05:37:01.439Z,968.42
2018-02-27T05:38:01.416Z,968.42
2018-02-27T05:39:01.393Z,968.45
2018-02-27T05:40:01.372Z,968.39
2018-02-27T05:41:01.351Z,968.42
2018-02-27T05:42:01.321Z,968.42
2018-02-27T05:43:01.306Z,968.47
2018-02-27T05:44:01.285Z,968.42
2018-02-27T05:45:01.254Z,968.47
2018-02-27T05:46:01.230Z,968.45
2018-02-27T05:47:01.212Z,968.44
2018-02-27T05:48:01.183Z,968.41
2018-02-27T05:49:01.165Z,968.48
2018-02-27T05:50:01.133Z,968.49
2018-02-27T05:51:01.115Z,968.49
2018-02-27T05:52:01.087Z,968.41
2018-02-27T05:53:01.065Z,968.41
2018-02-27T05:54:01.047Z,968.39
2018-02-27T05:55:01.017Z,968.41
2018-02-27T05:56:00.994Z,968.43
2018-02-27T05:57:00.975Z,968.45
2018-02-27T05:58:00.948Z,968.39
2018-02-27T05:59:00.926Z,968.45
2018-02-27T06:00:00.903Z,968.45
2018-02-27T06:01:00.883Z,968.48
2018-02-27T06:02:00.854Z,968.45
2018-02-27T06:03:00.833Z,968.49
2018-02-27T06:04:00.807Z,968.48
2018-02-27T06:05:00.785Z,968.46
2018-02-27T06:06:00.757Z,968.47
2018-02-27T06:07:00.737Z,968.49
2018-02-27T06:08:00.713Z,968.46
2018-02-27T06:09:00.688Z,968.44
2018-02-27T06:10:00.669Z,968.51
2018-02-27T06:11:00.649Z,968.48
2018-02-27T06:12:00.619Z,968.49
2018-02-27T06:13:00.601Z,968.45
2018-02-27T06:14:00.572Z,968.51
2018-02-27T06:15:00.549Z,968.47
2018-02-27T06:16:00.523Z,968.46
2018-02-27T06:17:00.501Z,968.47
2018-02-27T06:18:00.477Z,968.55
2018-02-27T06:19:00.455Z,968.55
2018-02-27T06:20:00.430Z,968.54
2018-02-27T06:21:00.406Z,968.55
2018-02-27T06:22:00.382Z,968.59
2018-02-27T06:23:00.362Z,968.54
2018-02-27T06:24:00.341Z,968.57
2018-02-27T06:25:00.313Z,968.53
2018-02-27T06:26:00.288Z,968.60
2018-02-27T06:27:00.265Z,968.62
2018-02-27T06:28:00.243Z,968.63
2018-02-27T06:29:00.219Z,968.62
2018-02-27T06:30:00.195Z,968.62
2018-02-27T06:31:00.183Z,968.62
2018-02-27T06:32:00.155Z,968.72
2018-02-27T06:33:00.125Z,968.66
2018-02-27T06:34:00.102Z,968.64
2018-02-27T06:35:00.090Z,968.67
2018-02-27T06:36:00.058Z,968.65
2018-02-27T06:37:00.043Z,968.66
2018-02-27T06:38:00.018Z,968.69
2018-02-27T06:38:59.985Z,968.66
2018-02-27T06:39:59.967Z,968.63
2018-02-27T06:40:59.951Z,968.64
2018-02-27T06:41:59.922Z,968.65
2018-02-27T06:42:59.891Z,968.68
2018-02-27T06:43:59.868Z,968.71
2018-02-27T06:44:59.845Z,968.71
2018-02-27T06:45:59.820Z,968.69
2018-02-27T06:46:59.801Z,968.67
2018-02-27T06:47:59.775Z,968.75
2018-02-27T06:48:59.759Z,968.72
2018-02-27T06:49:59.730Z,968.72
2018-02-27T06:50:59.711Z,968.71
2018-02-27T06:51:59.681Z,968.72
2018-02-27T06:52:59.659Z,968.73
2018-02-27T06:53:59.638Z,968.73
2018-02-27T06:54:59.614Z,968.79
2018-02-27T06:55:59.595Z,968.79
2018-02-27T06:56:59.563Z,968.77
2018-02-27T06:57:59.545Z,968.82
2018-02-27T06:58:59.522Z,968.74
2018-02-27T06:59:59.508Z,968.74
2018-02-27T07:00:59.478Z,968.73
2018-02-27T07:01:59.495Z,968.75
2018-02-27T07:02:59.424Z,968.74
2018-02-27T07:03:59.402Z,968.73
2018-02-27T07:04:59.377Z,968.77
2018-02-27T07:05:59.362Z,968.73
2018-02-27T07:06:59.333Z,968.80
2018-02-27T07:07:59.311Z,968.80
2018-02-27T07:08:59.284Z,968.79
2018-02-27T07:09:59.269Z,968.77
2018-02-27T07:10:59.239Z,968.80
2018-02-27T07:11:59.217Z,968.79
2018-02-27T07:12:59.190Z,968.79
2018-02-27T07:13:59.170Z,968.81
2018-02-27T07:14:59.146Z,968.78
2018-02-27T07:15:59.139Z,968.80
2018-02-27T07:16:59.110Z,968.82
2018-02-27T07:17:59.089Z,968.86
2018-02-27T07:18:59.054Z,968.90
2018-02-27T07:19:59.031Z,968.87
2018-02-27T07:20:59.007Z,968.84
2018-02-27T07:21:58.988Z,968.80
2018-02-27T07:22:58.961Z,968.83
2018-02-27T07:23:58.937Z,968.81
2018-02-27T07:24:58.920Z,968.80
2018-02-27T07:25:58.897Z,968.81
2018-02-27T07:26:58.869Z,968.81
2018-02-27T07:27:58.850Z,968.87
2018-02-27T07:28:58.820Z,968.84
2018-02-27T07:29:58.797Z,968.79
2018-02-27T07:30:58.775Z,968.77
2018-02-27T07:31:58.752Z,968.83
2018-02-27T07:32:58.734Z,968.80
2018-02-27T07:33:58.705Z,968.79
2018-02-27T07:34:58.681Z,968.77
2018-02-27T07:35:58.662Z,968.74
2018-02-27T07:36:58.637Z,968.85
2018-02-27T07:37:58.613Z,968.81
2018-02-27T07:38:58.590Z,968.79
2018-02-27T07:39:58.566Z,968.81
2018-02-27T07:40:58.551Z,968.74
2018-02-27T07:41:58.520Z,968.79
2018-02-27T07:42:58.496Z,968.78
2018-02-27T07:43:58.473Z,968.83
2018-02-27T07:44:58.456Z,968.86
2018-02-27T07:45:58.434Z,968.82
2018-02-27T07:46:58.404Z,968.86
2018-02-27T07:47:58.380Z,968.79
2018-02-27T07:48:58.356Z,968.82
2018-02-27T07:49:58.339Z,968.86
2018-02-27T07:50:58.311Z,968.90
2018-02-27T07:51:58.296Z,968.82
2018-02-27T07:52:58.266Z,968.78
2018-02-27T07:53:58.241Z,968.79
2018-02-27T07:54:58.237Z,968.76
2018-02-27T07:55:58.196Z,968.77
2018-02-27T07:56:58.174Z,968.78
2018-02-27T07:57:58.154Z,968.76
2018-02-27T07:58:58.126Z,968.79
2018-02-27T07:59:58.104Z,968.73
2018-02-27T08:00:58.082Z,968.75
2018-02-27T08:01:58.064Z,968.76
2018-02-27T08:02:58.048Z,968.78
2018-02-27T08:03:58.055Z,968.73
2018-02-27T08:04:57.990Z,968.74
2018-02-27T08:05:57.966Z,968.79
2018-02-27T08:06:57.942Z,968.72
2018-02-27T08:07:57.921Z,968.75
2018-02-27T08:08:57.902Z,968.70
2018-02-27T08:09:57.876Z,968.76
2018-02-27T08:10:57.851Z,968.70
2018-02-27T08:11:57.834Z,968.78
2018-02-27T08:12:57.808Z,968.80
2018-02-27T08:13:57.783Z,968.70
2018-02-27T08:14:57.758Z,968.79
2018-02-27T08:15:57.737Z,968.70
2018-02-27T08:16:57.712Z,968.71
2018-02-27T08:17:57.693Z,968.76
2018-02-27T08:18:57.676Z,968.72
2018-02-27T08:19:57.646Z,968.64
2018-02-27T08:20:57.624Z,968.71
2018-02-27T08:21:57.625Z,968.70
2018-02-27T08:22:57.589Z,968.65
2018-02-27T08:23:57.560Z,968.71
2018-02-27T08:24:57.537Z,968.69
2018-02-27T08:25:57.509Z,968.68
2018-02-27T08:26:57.484Z,968.65
2018-02-27T08:27:57.461Z,968.65
2018-02-27T08:28:57.438Z,968.74
2018-02-27T08:29:57.416Z,968.71
2018-02-27T08:30:57.394Z,968.71
2018-02-27T08:31:57.371Z,968.72
2018-02-27T08:32:57.349Z,968.67
2018-02-27T08:33:57.331Z,968.69
2018-02-27T08:34:57.307Z,968.83
2018-02-27T08:35:57.283Z,968.71
2018-02-27T08:36:57.259Z,968.69
2018-02-27T08:37:57.240Z,968.62
2018-02-27T08:38:57.212Z,968.66
2018-02-27T08:39:57.194Z,968.72
2018-02-27T08:40:57.165Z,968.68
2018-02-27T08:41:57.140Z,968.61
2018-02-27T08:42:57.119Z,968.68
2018-02-27T08:43:57.097Z,968.59
2018-02-27T08:44:57.073Z,968.56
2018-02-27T08:45:57.053Z,968.58
2018-02-27T08:46:57.029Z,968.64
2018-02-27T08:47:57.004Z,968.57
2018-02-27T08:48:56.984Z,968.58
2018-02-27T08:49:56.962Z,968.56
2018-02-27T08:50:57.000Z,968.59
2018-02-27T08:51:56.921Z,968.52
2018-02-27T08:52:56.900Z,968.67
2018-02-27T08:53:56.875Z,968.61
2018-02-27T08:54:56.849Z,968.58
2018-02-27T08:55:56.826Z,968.52
2018-02-27T08:56:56.807Z,968.53
2018-02-27T08:57:56.785Z,968.61
2018-02-27T08:58:56.761Z,968.53
2018-02-27T08:59:56.735Z,968.60
2018-02-27T09:00:56.713Z,968.59
2018-02-27T09:01:56.694Z,968.64
2018-02-27T09:02:56.668Z,968.62
2018-02-27T09:03:56.646Z,968.78
2018-02-27T09:04:56.627Z,968.64
2018-02-27T09:05:56.603Z,968.71
2018-02-27T09:06:56.584Z,968.73
2018-02-27T09:07:56.561Z,968.66
2018-02-27T09:08:56.540Z,968.57
2018-02-27T09:09:56.514Z,968.72
2018-02-27T09:10:56.489Z,968.63
2018-02-27T09:11:56.474Z,968.63
2018-02-27T09:12:56.445Z,968.64
2018-02-27T09:13:56.421Z,968.64
2018-02-27T09:14:56.397Z,968.62
2018-02-27T09:15:56.375Z,968.66
2018-02-27T09:16:56.358Z,968.67
2018-02-27T09:17:56.335Z,968.64
2018-02-27T09:18:56.308Z,968.72
2018-02-27T09:19:56.285Z,968.59
2018-02-27T09:20:56.262Z,968.57
2018-02-27T09:21:56.239Z,968.58
2018-02-27T09:22:56.215Z,968.55
2018-02-27T09:23:56.194Z,968.54
2018-02-27T09:24:56.175Z,968.61
2018-02-27T09:25:56.149Z,968.49
2018-02-27T09:26:56.126Z,968.55
2018-02-27T09:27:56.105Z,968.58
2018-02-27T09:28:56.087Z,968.55
2018-02-27T09:29:56.059Z,968.60
2018-02-27T09:30:56.036Z,968.64
2018-02-27T09:31:56.013Z,968.62
2018-02-27T09:32:55.989Z,968.49
2018-02-27T09:33:55.966Z,968.50
2018-02-27T09:34:55.986Z,968.46
2018-02-27T09:35:55.921Z,968.47
2018-02-27T09:36:55.905Z,968.49
2018-02-27T09:37:55.878Z,968.56
2018-02-27T09:38:55.854Z,968.65
2018-02-27T09:39:55.837Z,968.70
2018-02-27T09:40:55.813Z,968.54
2018-02-27T09:41:55.786Z,968.60
2018-02-27T09:42:55.764Z,968.50
2018-02-27T09:43:55.744Z,968.58
2018-02-27T09:44:55.717Z,968.54
2018-02-27T09:45:55.700Z,968.47
2018-02-27T09:46:55.673Z,968.64
2018-02-27T09:47:55.655Z,968.47
2018-02-27T09:48:55.629Z,968.53
2018-02-27T09:49:55.606Z,968.48
2018-02-27T09:50:55.583Z,968.52
2018-02-27T09:51:55.567Z,968.51
2018-02-27T09:52:55.537Z,968.47
2018-02-27T09:53:55.517Z,968.51
2018-02-27T09:54:55.491Z,968.65
2018-02-27T09:55:55.476Z,968.49
2018-02-27T09:56:55.448Z,968.53
2018-02-27T09:57:55.431Z,968.59
2018-02-27T09:58:55.400Z,968.54
2018-02-27T09:59:55.386Z,968.46
2018-02-27T10:00:55.364Z,968.59
2018-02-27T10:01:55.335Z,968.52
2018-02-27T10:02:55.313Z,968.58
2018-02-27T10:03:55.289Z,968.48
2018-02-27T10:04:55.267Z,968.62
2018-02-27T10:05:55.244Z,968.48
2018-02-27T10:06:55.220Z,968.48
2018-02-27T10:07:55.200Z,968.47
2018-02-27T10:08:55.183Z,968.58
2018-02-27T10:09:55.159Z,968.54
2018-02-27T10:10:55.133Z,968.53
2018-02-27T10:11:55.110Z,968.52
2018-02-27T10:12:55.090Z,968.45
2018-02-27T10:13:55.062Z,968.53
2018-02-27T10:14:55.041Z,968.49
2018-02-27T10:15:55.017Z,968.43
2018-02-27T10:16:54.996Z,968.55
2018-02-27T10:17:54.982Z,968.50
2018-02-27T10:18:54.952Z,968.46
2018-02-27T10:19:54.935Z,968.45
2018-02-27T10:20:54.903Z,968.48
2018-02-27T10:21:54.888Z,968.45
2018-02-27T10:22:54.863Z,968.44
2018-02-27T10:23:54.837Z,968.43
2018-02-27T10:24:54.816Z,968.44
2018-02-27T10:25:54.792Z,968.43
2018-02-27T10:26:54.775Z,968.43
2018-02-27T10:27:54.751Z,968.49
2018-02-27T10:28:54.726Z,968.41
2018-02-27T10:29:54.704Z,968.42
2018-02-27T10:30:54.688Z,968.39
2018-02-27T10:31:54.662Z,968.47
2018-02-27T10:32:54.636Z,968.47
2018-02-27T10:33:54.618Z,968.37
2018-02-27T10:34:54.593Z,968.39
2018-02-27T10:35:54.587Z,968.58
2018-02-27T10:36:54.554Z,968.52
2018-02-27T10:37:54.527Z,968.47
2018-02-27T10:38:54.508Z,968.46
2018-02-27T10:39:54.482Z,968.44
2018-02-27T10:40:54.459Z,968.50
2018-02-27T10:41:54.437Z,968.47
2018-02-27T10:42:54.417Z,968.46
2018-02-27T10:43:54.401Z,968.44
2018-02-27T10:44:54.374Z,968.47
2018-02-27T10:45:54.363Z,968.48
2018-02-27T10:46:54.334Z,968.44
2018-02-27T10:47:54.313Z,968.43
2018-02-27T10:48:54.285Z,968.38
2018-02-27T10:49:54.263Z,968.59
2018-02-27T10:50:54.242Z,968.59
2018-02-27T10:51:54.219Z,968.52
2018-02-27T10:52:54.202Z,968.56
2018-02-27T10:53:54.180Z,968.56
2018-02-27T10:54:54.181Z,968.67
2018-02-27T10:55:54.134Z,968.44
2018-02-27T10:56:54.111Z,968.42
2018-02-27T10:57:54.094Z,968.50
2018-02-27T10:58:54.069Z,968.42
2018-02-27T10:59:54.047Z,968.38
2018-02-27T11:00:54.022Z,968.40
2018-02-27T11:01:54.051Z,968.40
2018-02-27T11:02:53.978Z,968.42
2018-02-27T11:03:53.956Z,968.50
2018-02-27T11:04:53.935Z,968.41
2018-02-27T11:05:53.914Z,968.34
2018-02-27T11:06:53.892Z,968.33
2018-02-27T11:07:53.871Z,968.35
2018-02-27T11:08:53.848Z,968.30
2018-02-27T11:09:53.831Z,968.26
2018-02-27T11:10:53.803Z,968.27
2018-02-27T11:11:53.784Z,968.23
2018-02-27T11:12:53.760Z,968.24
2018-02-27T11:13:53.745Z,968.31
2018-02-27T11:14:53.715Z,968.24
2018-02-27T11:15:53.695Z,968.23
2018-02-27T11:16:53.669Z,968.21
2018-02-27T11:17:53.649Z,968.20
2018-02-27T11:18:53.631Z,968.20
2018-02-27T11:19:53.653Z,968.18
2018-02-27T11:20:53.584Z,968.06
2018-02-27T11:21:53.566Z,968.15
2018-02-27T11:22:53.545Z,968.13
2018-02-27T11:23:53.520Z,968.14
2018-02-27T11:24:53.498Z,968.20
2018-02-27T11:25:53.477Z,968.17
2018-02-27T11:26:53.458Z,968.13
2018-02-27T11:27:53.432Z,968.14
2018-02-27T11:28:53.414Z,968.21
2018-02-27T11:29:53.388Z,968.12
2018-02-27T11:30:53.368Z,968.08
2018-02-27T11:31:53.346Z,968.14
2018-02-27T11:32:53.325Z,968.10
2018-02-27T11:33:53.303Z,968.09
2018-02-27T11:34:53.283Z,968.07
2018-02-27T11:35:53.265Z,968.15
2018-02-27T11:36:53.237Z,968.08
2018-02-27T11:37:53.216Z,968.11
2018-02-27T11:38:53.196Z,968.07
2018-02-27T11:39:53.174Z,968.28
2018-02-27T11:40:53.153Z,968.24
2018-02-27T11:41:53.140Z,968.26
2018-02-27T11:42:53.149Z,968.21
2018-02-27T11:43:53.088Z,968.07
2018-02-27T11:44:53.064Z,968.18
2018-02-27T11:45:53.047Z,968.29
2018-02-27T11:46:53.028Z,968.15
2018-02-27T11:47:53.000Z,968.20
2018-02-27T11:48:52.979Z,968.07
2018-02-27T11:49:52.957Z,968.12
2018-02-27T11:50:52.937Z,968.07
2018-02-27T11:51:52.915Z,968.10
2018-02-27T11:52:52.895Z,968.06
2018-02-27T11:53:52.872Z,968.08
2018-02-27T11:54:52.851Z,968.06
2018-02-27T11:55:52.831Z,968.02
2018-02-27T11:56:52.807Z,968.00
2018-02-27T11:57:52.785Z,968.00
2018-02-27T11:58:52.769Z,967.95
2018-02-27T11:59:52.751Z,967.98
2018-02-27T12:00:52.720Z,967.97
2018-02-27T12:01:52.699Z,967.92
2018-02-27T12:02:52.678Z,967.91
2018-02-27T12:03:52.663Z,967.90
2018-02-27T12:04:52.636Z,968.01
2018-02-27T12:05:52.618Z,967.97
2018-02-27T12:06:52.600Z,967.91
2018-02-27T12:07:52.575Z,967.95
2018-02-27T12:08:52.552Z,968.02
2018-02-27T12:09:52.537Z,967.97
2018-02-27T12:10:52.514Z,967.95
2018-02-27T12:11:52.496Z,967.93
2018-02-27T12:12:52.476Z,967.89
2018-02-27T12:13:52.448Z,967.90
2018-02-27T12:14:52.434Z,968.00
2018-02-27T12:15:52.408Z,967.94
2018-02-27T12:16:52.385Z,968.00
2018-02-27T12:17:52.365Z,967.98
2018-02-27T12:18:52.350Z,968.09
2018-02-27T12:19:52.327Z,968.01
2018-02-27T12:20:52.309Z,967.98
2018-02-27T12:21:52.287Z,967.95
2018-02-27T12:22:52.260Z,968.10
2018-02-27T12:23:52.240Z,968.01
2018-02-27T12:24:52.217Z,967.99
2018-02-27T12:25:52.199Z,967.95
2018-02-27T12:26:52.182Z,967.94
2018-02-27T12:27:52.162Z,967.87